Date,TemperatureHighF,TemperatureAvgF,TemperatureLowF,DewpointHighF,DewpointAvgF,DewpointLowF,HumidityHigh,HumidityAvg,HumidityLow,PressureMaxIn,PressureMinIn,WindSpeedMaxMPH,WindSpeedAvgMPH,GustSpeedMaxMPH,PrecipitationSumIn
2013-4-1,83,70,60,65,58,52,89,68,43,29.99,29.89,10,2,10,0.00
2013-4-2,84,66,50,54,49,45,87,59,29,30.13,29.99,7,1,7,0.00
2013-4-3,78,61,49,59,52,44,88,73,48,30.13,30.04,9,2,9,0.15
2013-4-4,72,62,55,69,59,52,94,90,87,30.11,29.83,9,2,9,0.43
2013-4-5,63,55,49,55,51,47,93,85,72,30.06,29.87,5,1,7,1.11
2013-4-6,76,60,46,57,47,39,94,67,32,30.21,30.05,9,2,10,0.00
2013-4-7,80,64,53,62,54,48,89,71,46,30.21,30.11,10,2,10,0.00
2013-4-8,86,68,53,64,56,50,90,68,38,30.17,30.08,8,2,9,0.00
2013-4-9,85,70,56,67,59,53,90,72,42,30.20,30.11,10,2,10,0.00
2013-4-10,86,70,56,66,60,53,90,72,44,30.16,30.01,8,2,11,0.05
2013-4-11,88,73,63,73,67,60,94,82,53,30.01,29.80,8,2,8,0.09
2013-4-12,89,78,69,74,69,65,91,75,53,29.89,29.76,9,2,11,0.23
2013-4-13,83,68,54,65,52,48,88,62,31,30.02,29.89,6,1,8,0.00
2013-4-14,68,61,56,64,57,51,93,85,72,30.05,29.85,8,1,10,1.03
2013-4-15,78,67,59,68,62,57,94,83,65,30.14,29.87,6,1,6,0.01
2013-4-16,84,71,61,70,63,59,94,77,51,30.22,30.11,7,1,10,0.00
2013-4-17,82,70,59,68,61,57,93,77,54,30.21,30.12,7,1,8,0.00
2013-4-18,82,68,63,72,64,59,92,86,68,30.12,30.05,9,1,9,0.05
2013-4-19,89,78,63,71,66,59,88,70,48,30.02,29.85,8,3,10,0.45
2013-4-20,66,57,51,59,50,47,90,79,61,30.21,30.02,6,1,7,0.69
2013-4-21,75,60,48,58,52,46,91,76,54,30.24,30.17,8,3,9,0.00
2013-4-22,72,62,56,56,53,50,90,72,52,30.21,30.11,8,2,12,0.18
2013-4-23,80,64,50,58,54,46,89,71,43,30.19,30.10,7,2,10,0.00
2013-4-24,85,68,51,65,56,47,93,71,45,30.17,30.07,5,1,6,0.00
2013-4-25,86,73,62,69,62,58,87,69,48,30.22,30.11,7,1,8,0.00
2013-4-26,83,68,56,63,54,47,83,63,40,30.34,30.20,8,2,10,0.00
2013-4-27,82,69,56,63,56,52,87,67,37,30.29,30.17,8,2,11,0.00
2013-4-28,84,71,60,65,60,56,91,71,51,30.18,29.98,8,2,10,0.00
2013-4-29,83,70,64,69,64,61,92,81,56,30.04,29.94,5,1,8,0.30
2013-4-30,86,71,61,70,63,59,93,79,54,30.07,29.95,5,1,6,0.00